Flight Track Log - Related Links

Times and Time Zones

All times are in EDT time to prevent confusion due to time zone crossing. See the NKS918 flight status page for this flight to view local times or setup timezone preferences in your user account.

Time Position Orientation Groundspeed Altitude Reporting Facility
EDT Latitude Longitude Course Direction KTS MPH feet Rate Location/Type
Tue 11:14:15 PM 33.9578 -118.3855 261° West  Level FlightAware Approximate
Tue 11:15:06 PM 33.9386 -118.5325 241° Southwest 245 282 4,000  Level Los Angeles Center
Tue 11:16:06 PM 33.9036 -118.6089 201° Southwest 257 296 7,000 1,500 Climbing Los Angeles Center
Tue 11:17:06 PM 33.8361 -118.6394 156° South 240 276 7,000 1,300 Level Los Angeles Center
Tue 11:18:06 PM 33.7703 -118.6050 58° Northeast 209 241 9,600 2,400 Climbing Los Angeles Center
Tue 11:19:06 PM 33.8178 -118.5139 29° Northeast 145 167 11,800 2,300 Climbing Los Angeles Center
Tue 11:20:06 PM 33.8919 -118.4636 44° Northeast 225 259 14,200 2,950 Climbing Los Angeles Center
Tue 11:21:06 PM 33.9753 -118.3656 56° Northeast 312 359 17,700 2,400 Climbing Los Angeles Center
Tue 11:22:06 PM 34.0378 -118.2519 55° Northeast 348 400 19,000 650 Climbing Los Angeles Center
Tue 11:23:06 PM 34.1067 -118.1308 55° Northeast 409 471 19,000  Level Los Angeles Center
Tue 11:24:06 PM 34.1731 -118.0144 55° Northeast 420 483 19,000 50 Level Los Angeles Center
Tue 11:25:06 PM 34.2481 -117.8828 58° Northeast 426 490 19,100 1,150 Climbing Los Angeles Center
Tue 11:26:06 PM 34.3039 -117.7733 56° Northeast 426 490 21,300 1,950 Climbing Los Angeles Center
Tue 11:27:06 PM 34.3722 -117.6514 55° Northeast 431 496 23,000 850 Climbing Los Angeles Center
Tue 11:28:06 PM 34.4406 -117.5317 56° Northeast 437 503 23,000  Level Los Angeles Center
Tue 11:29:06 PM 34.5067 -117.4119 56° Northeast 432 497 23,000  Level Los Angeles Center
Tue 11:30:06 PM 34.5725 -117.2917 56° Northeast 432 497 23,000  Level Los Angeles Center
Tue 11:31:06 PM 34.6383 -117.1714 57° Northeast 432 497 23,000  Level Los Angeles Center
Tue 11:32:06 PM 34.7019 -117.0511 55° Northeast 432 497 23,000  Level Los Angeles Center
Tue 11:33:06 PM 34.7694 -116.9331 57° Northeast 432 497 23,000  Level Los Angeles Center
Tue 11:34:06 PM 34.8350 -116.8122 57° Northeast 432 497 23,000  Level Los Angeles Center
Tue 11:35:06 PM 34.8983 -116.6911 55° Northeast 432 497 23,000  Level Los Angeles Center
Tue 11:36:06 PM 34.9656 -116.5725 47° Northeast 432 497 23,000  Level Los Angeles Center
Tue 11:37:06 PM 35.0472 -116.4664 44° Northeast 432 497 23,000  Level Los Angeles Center
Tue 11:38:06 PM 35.1350 -116.3625 45° Northeast 427 491 23,000  Level Los Angeles Center
Tue 11:39:06 PM 35.2186 -116.2586 46° Northeast 422 486 23,000 -800 Level Los Angeles Center
Tue 11:40:06 PM 35.2981 -116.1569 45° Northeast 422 486 21,400 -1,700 Descending Los Angeles Center
Tue 11:41:06 PM 35.3794 -116.0575 47° Northeast 415 478 19,600 -1,750 Descending Los Angeles Center
Tue 11:42:06 PM 35.4525 -115.9606 47° Northeast 402 463 17,900 -1,950 Descending Los Angeles Center
Tue 11:43:06 PM 35.5358 -115.8508 45° Northeast 383 441 15,700 -1,950 Descending Los Angeles Center
Tue 11:44:06 PM 35.6086 -115.7611 45° Northeast 383 441 14,000 -1,400 Descending Los Angeles Center
Tue 11:45:06 PM 35.6792 -115.6739 44° Northeast 372 428 12,900 -750 Descending Los Angeles Center
Tue 11:46:06 PM 35.7394 -115.6019 13° North 349 402 12,500 -450 Descending Los Angeles Center
Tue 11:47:06 PM 35.8311 -115.5756 North 304 350 12,000 -250 Descending Los Angeles Center
Tue 11:48:06 PM 35.9103 -115.5700 18° North 304 350 12,000 -50 Level Los Angeles Center
Tue 11:49:06 PM 35.9997 -115.5333 76° East 304 350 11,900 -350 Descending Los Angeles Center
Tue 11:50:06 PM 36.0222 -115.4253 86° East 275 316 11,300 -550 Descending Los Angeles Center
Tue 11:51:06 PM 36.0278 -115.3253 95° East 270 311 10,800 -950 Descending Los Angeles Center
Tue 11:52:06 PM 36.0208 -115.2303 95° East 270 311 9,400 -900 Descending Los Angeles Center
Tue 11:53:06 PM 36.0142 -115.1431 93° East 265 305 9,000 -650 Descending Los Angeles Center
Tue 11:54:06 PM 36.0114 -115.0711 97° East 240 276 8,100 -1,200 Descending Los Angeles Center
Tue 11:55:06 PM 36.0044 -114.9994 93° East 218 251 6,600 -1,050 Descending Los Angeles Center
Tue 11:56:06 PM 36.0017 -114.9300 40° Northeast 205 236 6,000 -300 Descending Los Angeles Center
Tue 11:57:06 PM 36.0369 -114.8936 323° Northwest 162 186 6,000 -500 Level Los Angeles Center
Tue 11:58:06 PM 36.0725 -114.9264 273° West 105 121 5,000 -900 Descending Los Angeles Center
Tue 11:59:06 PM 36.0753 -114.9856 268° West 110 127 4,200 -850 Descending Los Angeles Center
Wed 12:00:06 AM 36.0736 -115.0472 271° West 149 171 3,300 -850 Descending Los Angeles Center
Wed 12:01:06 AM 36.0742 -115.0936 271° West 160 184 2,500 -800 Descending Los Angeles Center

Login

Don't have an account? Register now (free) for customized features, flight alerts, and more!